Time;durP1;ratioP1;P1;durP2;ratioP2;P2;SDS_P1;SDS_P2;PMS_P1;PMS_P2;Temp;Humidity;BMP_temperature;BMP_pressure;BME280_temperature;BME280_humidity;BME280_pressure;Samples;Min_cycle;Max_cycle;Signal;HPM_P1;HPM_P2
2021/07/31 00:00:20;;;;;;;13.83;10.73;;;;;;;18.46;63.24;99566.98;128278;1095;22362;-79
2021/07/31 00:03:09;;;;;;;18.18;10.98;;;;;;;18.45;63.76;99568.05;128319;1095;22824;-79
2021/07/31 00:05:39;;;;;;;18.95;11.40;;;;;;;18.49;63.74;99577.20;128607;1095;22343;-79
2021/07/31 00:08:08;;;;;;;14.40;10.35;;;;;;;18.52;63.67;99580.22;128554;1095;22343;-78
2021/07/31 00:10:38;;;;;;;19.15;12.65;;;;;;;18.50;63.61;99576.98;128604;1095;22350;-80
2021/07/31 00:13:07;;;;;;;20.13;12.18;;;;;;;18.41;63.30;99572.25;128321;1095;24491;-80
2021/07/31 00:15:37;;;;;;;20.52;11.65;;;;;;;18.28;63.76;99576.00;128615;1095;22349;-78
2021/07/31 00:18:07;;;;;;;18.20;10.65;;;;;;;18.16;64.05;99580.56;128298;1095;22349;-80
2021/07/31 00:20:38;;;;;;;13.70;11.00;;;;;;;18.06;64.12;99575.81;128570;1095;22385;-80
2021/07/31 00:23:09;;;;;;;17.00;10.63;;;;;;;17.96;64.52;99575.60;128595;1095;22349;-80
2021/07/31 00:25:38;;;;;;;16.65;11.05;;;;;;;17.91;64.60;99572.84;128663;1094;24240;-80
2021/07/31 00:28:08;;;;;;;28.10;12.45;;;;;;;17.86;64.86;99569.02;128628;1095;22457;-80
2021/07/31 00:30:38;;;;;;;16.25;11.38;;;;;;;17.86;64.95;99558.33;128660;1095;22676;-80
2021/07/31 00:33:08;;;;;;;18.15;11.40;;;;;;;17.95;65.45;99560.63;128299;1093;22344;-79
2021/07/31 00:35:37;;;;;;;16.95;10.63;;;;;;;18.01;65.15;99557.02;128625;1093;22348;-79
2021/07/31 00:38:07;;;;;;;16.88;11.50;;;;;;;18.06;64.76;99557.11;128660;1095;22343;-80
2021/07/31 00:40:37;;;;;;;19.20;13.25;;;;;;;18.01;64.30;99555.16;128313;1095;22781;-80
2021/07/31 00:43:09;;;;;;;25.80;14.38;;;;;;;17.99;64.59;99553.75;128301;1095;24479;-79
2021/07/31 00:45:39;;;;;;;14.58;11.63;;;;;;;18.00;64.71;99552.73;128292;1095;22367;-79
2021/07/31 00:48:09;;;;;;;15.53;12.00;;;;;;;18.03;64.76;99552.26;128291;1095;22372;-78
2021/07/31 00:50:39;;;;;;;21.40;11.48;;;;;;;18.06;64.66;99555.27;128344;1095;22448;-79
2021/07/31 00:53:09;;;;;;;14.28;10.58;;;;;;;18.13;64.45;99549.79;128311;1095;24079;-79
2021/07/31 00:55:39;;;;;;;14.40;11.00;;;;;;;18.14;64.94;99545.25;128311;1095;22359;-77
2021/07/31 00:58:11;;;;;;;15.60;13.30;;;;;;;18.15;64.52;99550.34;128310;1093;24513;-78
2021/07/31 01:00:48;;;;;;;20.05;10.78;;;;;;;18.08;64.56;99550.48;128301;1095;22366;-78
2021/07/31 01:03:17;;;;;;;14.83;12.00;;;;;;;18.02;64.73;99547.94;128169;1098;22353;-78
2021/07/31 01:05:48;;;;;;;15.28;12.33;;;;;;;18.03;64.78;99549.59;128222;1098;22362;-78
2021/07/31 01:08:18;;;;;;;13.70;11.05;;;;;;;18.04;64.86;99553.88;127977;1098;22363;-79
2021/07/31 01:10:48;;;;;;;12.40;11.10;;;;;;;18.04;64.64;99545.86;128140;1098;22353;-78
2021/07/31 01:13:20;;;;;;;13.90;11.08;;;;;;;18.03;64.73;99538.90;128215;1098;22346;-78
2021/07/31 01:16:03;;;;;;;14.68;12.23;;;;;;;18.04;64.83;99548.53;128228;1098;22360;-79
2021/07/31 01:18:36;;;;;;;15.58;10.13;;;;;;;18.02;64.75;99542.59;128189;1098;22378;-78
2021/07/31 01:21:12;;;;;;;13.75;9.98;;;;;;;17.99;64.73;99535.05;128246;1095;22348;-78
2021/07/31 01:23:41;;;;;;;17.28;10.75;;;;;;;17.98;64.92;99530.77;128651;1095;22369;-79
2021/07/31 01:26:11;;;;;;;13.83;11.13;;;;;;;17.93;64.84;99539.50;128304;1095;22364;-78
2021/07/31 01:28:42;;;;;;;13.48;10.55;;;;;;;17.86;64.78;99533.48;128301;1095;22351;-77
2021/07/31 01:31:13;;;;;;;15.33;9.73;;;;;;;17.81;64.96;99531.48;128351;1095;22764;-77
2021/07/31 01:33:43;;;;;;;15.35;10.90;;;;;;;17.77;65.13;99525.00;128347;1095;22357;-77
2021/07/31 01:36:13;;;;;;;15.58;11.13;;;;;;;17.78;65.23;99523.13;128657;1095;24495;-78
2021/07/31 01:38:44;;;;;;;18.10;12.03;;;;;;;17.75;64.86;99520.91;128670;1095;23367;-78
2021/07/31 01:41:14;;;;;;;12.60;9.80;;;;;;;17.75;65.38;99526.24;128335;1095;22621;-79
2021/07/31 01:43:44;;;;;;;15.43;11.53;;;;;;;17.70;64.99;99539.51;128296;1095;22369;-79
2021/07/31 01:46:14;;;;;;;18.08;11.05;;;;;;;17.67;65.57;99531.95;128279;1095;22344;-78
2021/07/31 01:48:45;;;;;;;19.55;12.15;;;;;;;17.68;65.53;99531.71;128548;1095;22792;-79
2021/07/31 01:51:18;;;;;;;19.68;11.70;;;;;;;17.71;65.43;99539.26;128322;1095;22351;-78
2021/07/31 01:53:50;;;;;;;18.38;12.83;;;;;;;17.71;65.43;99525.09;128679;1095;22336;-79
2021/07/31 01:56:20;;;;;;;22.33;11.50;;;;;;;17.68;65.32;99526.37;128651;1093;22359;-79
2021/07/31 01:58:50;;;;;;;14.35;10.93;;;;;;;17.66;65.24;99525.81;128558;1095;22343;-79
2021/07/31 02:01:21;;;;;;;14.18;11.08;;;;;;;17.67;65.34;99523.95;128640;1093;22360;-79
2021/07/31 02:03:52;;;;;;;14.93;10.60;;;;;;;17.65;65.64;99522.30;128358;1095;22343;-79
2021/07/31 02:06:31;;;;;;;13.98;10.90;;;;;;;17.64;65.90;99531.37;128590;1095;24236;-79
2021/07/31 02:09:02;;;;;;;17.55;11.13;;;;;;;17.64;65.68;99525.22;128310;1095;22336;-78
2021/07/31 02:11:34;;;;;;;17.00;11.15;;;;;;;17.60;65.54;99532.89;128312;1095;22348;-79
2021/07/31 02:14:04;;;;;;;16.85;11.88;;;;;;;17.58;65.66;99523.48;128599;1095;22364;-80
2021/07/31 02:16:41;;;;;;;18.25;11.43;;;;;;;17.55;66.04;99523.94;128597;1094;22342;-79
2021/07/31 02:19:15;;;;;;;12.60;10.58;;;;;;;17.54;65.99;99527.66;128300;1095;22364;-79
2021/07/31 02:21:49;;;;;;;14.73;11.80;;;;;;;17.54;66.41;99525.00;128562;1095;22372;-80
2021/07/31 02:24:54;;;;;;;13.05;10.73;;;;;;;17.52;66.34;99519.06;128153;1098;22448;-79
2021/07/31 02:27:30;;;;;;;14.20;10.83;;;;;;;17.51;66.17;99523.59;128183;1098;24187;-79
2021/07/31 02:30:08;;;;;;;14.13;10.70;;;;;;;17.48;66.25;99516.05;128191;1098;22389;-79
2021/07/31 02:32:40;;;;;;;18.50;11.33;;;;;;;17.47;66.47;99513.63;128235;1098;24508;-79
2021/07/31 02:35:11;;;;;;;15.63;11.40;;;;;;;17.49;66.50;99511.52;128198;1098;22659;-78
2021/07/31 02:38:02;;;;;;;;;;;;;;;17.43;66.21;99502.61;128177;1098;22882;-79
2021/07/31 02:40:34;;;;;;;15.20;11.05;;;;;;;17.34;66.38;99506.66;128206;1098;21263;-79
2021/07/31 02:43:04;;;;;;;18.50;11.80;;;;;;;17.33;66.45;99503.19;127964;1098;22359;-79
2021/07/31 02:45:36;;;;;;;13.60;9.93;;;;;;;17.35;66.46;99510.95;128130;1098;23936;-78
2021/07/31 02:48:07;;;;;;;15.13;11.50;;;;;;;17.37;66.96;99500.86;128254;1098;22449;-79
2021/07/31 02:50:36;;;;;;;14.53;11.10;;;;;;;17.39;66.89;99502.26;128276;1098;22376;-79
2021/07/31 02:53:10;;;;;;;14.78;11.08;;;;;;;17.37;66.50;99501.67;128176;1098;22368;-78
2021/07/31 02:55:40;;;;;;;16.00;12.33;;;;;;;17.35;66.12;99498.41;127962;1098;22349;-78
2021/07/31 02:58:10;;;;;;;13.55;10.90;;;;;;;17.30;66.17;99495.64;127986;1098;22365;-78
2021/07/31 03:00:41;;;;;;;18.13;12.38;;;;;;;17.26;66.12;99497.16;128523;1095;22338;-78
2021/07/31 03:03:12;;;;;;;12.53;10.60;;;;;;;17.24;66.62;99488.55;128295;1095;22798;-79
2021/07/31 03:05:42;;;;;;;19.80;12.13;;;;;;;17.26;66.73;99491.81;128659;1095;22359;-80
2021/07/31 03:08:13;;;;;;;15.58;12.25;;;;;;;17.25;66.58;99495.51;128363;1095;22342;-80
2021/07/31 03:10:43;;;;;;;18.35;12.68;;;;;;;17.24;66.38;99493.89;128688;1095;22360;-79
2021/07/31 03:13:13;;;;;;;14.65;11.68;;;;;;;17.21;66.40;99489.02;128582;1095;22446;-80
2021/07/31 03:15:43;;;;;;;14.68;11.55;;;;;;;17.19;66.32;99493.77;128237;1095;22662;-79
2021/07/31 03:18:13;;;;;;;18.85;11.18;;;;;;;17.21;66.43;99494.36;128568;1093;22330;-79
2021/07/31 03:20:51;;;;;;;14.43;11.78;;;;;;;17.23;66.46;99497.62;128567;1095;22357;-79
2021/07/31 03:23:27;;;;;;;19.95;12.25;;;;;;;17.23;66.13;99492.28;128332;1095;22362;-79
2021/07/31 03:25:59;;;;;;;19.75;13.93;;;;;;;17.22;66.27;99485.30;128580;1095;22370;-78
2021/07/31 03:28:30;;;;;;;15.58;11.98;;;;;;;17.21;66.12;99489.02;128308;1095;22341;-79
2021/07/31 03:31:03;;;;;;;14.85;11.90;;;;;;;17.21;66.66;99486.35;128625;1095;22378;-79
2021/07/31 03:33:33;;;;;;;15.45;11.75;;;;;;;17.22;66.43;99487.16;128563;1095;22370;-79
2021/07/31 03:36:04;;;;;;;17.73;12.68;;;;;;;17.23;66.47;99481.60;128332;1095;22878;-80
2021/07/31 03:38:39;;;;;;;15.10;12.35;;;;;;;17.24;66.10;99482.41;128731;1093;22344;-78
2021/07/31 03:41:10;;;;;;;16.30;12.30;;;;;;;17.23;65.93;99483.44;128458;1095;22341;-78
2021/07/31 03:43:45;;;;;;;13.95;12.10;;;;;;;17.27;66.35;99484.62;128310;1095;22359;-79
2021/07/31 03:46:15;;;;;;;17.80;11.08;;;;;;;17.32;66.24;99479.38;128606;1093;24483;-78
2021/07/31 03:48:45;;;;;;;13.60;10.45;;;;;;;17.39;65.92;99482.73;128253;1095;22346;-79
2021/07/31 03:51:15;;;;;;;15.70;11.40;;;;;;;17.44;66.09;99477.52;128624;1094;22350;-78
2021/07/31 03:53:48;;;;;;;18.10;11.25;;;;;;;17.50;65.58;99481.93;128336;1095;22359;-79
2021/07/31 03:56:17;;;;;;;13.88;11.08;;;;;;;17.55;65.62;99484.69;128348;1095;22354;-78
2021/07/31 03:58:50;;;;;;;16.18;11.93;;;;;;;17.56;64.99;99488.17;128615;1095;22336;-79
2021/07/31 04:01:23;;;;;;;27.18;14.00;;;;;;;17.52;65.00;99481.68;128575;1093;22353;-78
2021/07/31 04:03:55;;;;;;;13.40;12.05;;;;;;;17.51;65.52;99485.41;128643;1095;22346;-78
2021/07/31 04:06:25;;;;;;;20.68;11.83;;;;;;;17.51;65.19;99483.55;128614;1093;22364;-77
2021/07/31 04:09:13;;;;;;;16.10;11.83;;;;;;;17.52;65.50;99489.69;128544;1095;22341;-78
2021/07/31 04:12:02;;;;;;;15.25;12.33;;;;;;;17.54;65.23;99483.08;128585;1095;22342;-78
2021/07/31 04:14:50;;;;;;;17.25;11.45;;;;;;;17.57;65.15;99468.45;128584;1095;22339;-78
2021/07/31 04:17:20;;;;;;;13.55;11.70;;;;;;;17.60;65.18;99462.64;128564;1094;22359;-78
2021/07/31 04:19:51;;;;;;;17.13;10.65;;;;;;;17.62;65.69;99471.22;128598;1093;25113;-77
2021/07/31 04:22:21;;;;;;;16.10;11.38;;;;;;;17.64;64.94;99467.27;128309;1095;22367;-79
2021/07/31 04:24:52;;;;;;;16.43;11.10;;;;;;;17.69;65.17;99477.23;128635;1095;22359;-80
2021/07/31 04:27:24;;;;;;;20.08;11.35;;;;;;;17.73;65.11;99478.41;128663;1093;24236;-79
2021/07/31 04:29:54;;;;;;;12.28;10.30;;;;;;;17.75;64.46;99480.83;128544;1095;22807;-78
2021/07/31 04:32:24;;;;;;;12.73;10.80;;;;;;;17.77;64.76;99476.92;128603;1095;24237;-78
2021/07/31 04:34:53;;;;;;;14.98;10.68;;;;;;;17.87;64.78;99479.79;128606;1095;22367;-79
2021/07/31 04:37:23;;;;;;;11.15;9.93;;;;;;;17.96;64.52;99484.75;128183;1095;22358;-79
2021/07/31 04:39:53;;;;;;;14.73;10.73;;;;;;;18.04;64.51;99481.72;128244;1095;22353;-80
2021/07/31 04:42:22;;;;;;;14.58;10.80;;;;;;;18.14;64.20;99484.59;128216;1095;22398;-79
2021/07/31 04:44:52;;;;;;;12.20;9.95;;;;;;;18.29;64.26;99476.02;128186;1095;22345;-80
2021/07/31 04:47:24;;;;;;;14.03;10.40;;;;;;;18.44;63.92;99484.34;128194;1095;22359;-79
2021/07/31 04:49:53;;;;;;;14.18;9.93;;;;;;;18.60;63.38;99477.39;128194;1095;22350;-78
2021/07/31 04:52:23;;;;;;;13.15;8.83;;;;;;;18.76;62.85;99487.33;128206;1095;22471;-78
2021/07/31 04:54:52;;;;;;;11.80;8.53;;;;;;;18.91;62.13;99481.41;128265;1095;24516;-78
2021/07/31 04:57:22;;;;;;;9.80;8.75;;;;;;;19.03;61.68;99478.66;128628;1095;22414;-78
2021/07/31 04:59:52;;;;;;;14.88;9.18;;;;;;;19.16;61.33;99472.97;128659;1094;22344;-78
2021/07/31 05:02:21;;;;;;;10.18;8.45;;;;;;;19.33;61.12;99472.13;128618;1093;22343;-78
2021/07/31 05:04:51;;;;;;;13.43;9.15;;;;;;;19.48;60.57;99472.33;128527;1095;22343;-79
2021/07/31 05:07:21;;;;;;;12.65;9.33;;;;;;;19.63;60.20;99471.73;128299;1095;23207;-79
2021/07/31 05:09:51;;;;;;;11.65;8.83;;;;;;;19.72;59.71;99473.73;128579;1095;22346;-79
2021/07/31 05:12:20;;;;;;;11.15;9.28;;;;;;;19.87;59.68;99472.32;128604;1095;22350;-77
2021/07/31 05:14:52;;;;;;;10.33;8.35;;;;;;;20.06;59.54;99478.98;128612;1095;22362;-77
2021/07/31 05:17:22;;;;;;;11.18;9.05;;;;;;;20.15;58.86;99479.33;128645;1095;22348;-77
2021/07/31 05:19:52;;;;;;;14.58;9.55;;;;;;;20.28;58.74;99484.30;128300;1095;22363;-77
2021/07/31 05:22:21;;;;;;;10.63;9.48;;;;;;;20.46;58.39;99493.88;128553;1095;22350;-78
2021/07/31 05:24:53;;;;;;;14.65;9.88;;;;;;;20.66;58.88;99486.05;128652;1095;22359;-78
2021/07/31 05:27:23;;;;;;;10.10;8.70;;;;;;;20.88;58.07;99477.89;128698;1094;22344;-78
2021/07/31 05:29:53;;;;;;;12.80;9.33;;;;;;;21.11;57.58;99471.34;128612;1095;22344;-75
2021/07/31 05:32:23;;;;;;;12.73;8.58;;;;;;;21.37;56.97;99490.35;128627;1094;23303;-76
2021/07/31 05:34:56;;;;;;;12.53;8.65;;;;;;;21.66;55.99;99485.41;128286;1095;22335;-76
2021/07/31 05:37:25;;;;;;;11.35;8.93;;;;;;;22.01;55.79;99483.92;128299;1094;22924;-76
2021/07/31 05:39:55;;;;;;;12.55;8.83;;;;;;;22.31;54.11;99494.79;128554;1095;22348;-76
2021/07/31 05:42:25;;;;;;;13.80;8.65;;;;;;;22.56;54.00;99493.23;128590;1095;24174;-77
2021/07/31 05:44:59;;;;;;;10.18;7.90;;;;;;;22.80;53.23;99488.13;128610;1095;24240;-76
2021/07/31 05:47:29;;;;;;;11.28;7.63;;;;;;;22.99;52.69;99485.70;128477;1095;24486;-76
2021/07/31 05:50:03;;;;;;;13.50;8.67;;;;;;;23.08;52.25;99489.48;128645;1095;22343;-76
2021/07/31 05:52:38;;;;;;;9.55;8.08;;;;;;;23.15;52.74;99481.92;128646;1094;22357;-75
2021/07/31 05:55:09;;;;;;;9.93;7.90;;;;;;;23.32;52.16;99492.40;128580;1093;22343;-76
2021/07/31 05:57:38;;;;;;;9.80;8.23;;;;;;;23.38;51.31;99491.31;128691;1093;22362;-75
2021/07/31 06:00:09;;;;;;;9.25;7.43;;;;;;;23.53;51.87;99489.68;128594;1094;22347;-75
2021/07/31 06:02:43;;;;;;;12.08;7.63;;;;;;;23.70;51.27;99490.19;128278;1095;22347;-76
2021/07/31 06:05:13;;;;;;;9.40;8.20;;;;;;;23.94;50.93;99483.06;128614;1095;22343;-75
2021/07/31 06:07:43;;;;;;;12.58;7.30;;;;;;;24.18;50.71;99487.80;128530;1094;22366;-77
2021/07/31 06:10:13;;;;;;;9.25;7.73;;;;;;;24.43;50.02;99483.38;128567;1094;22337;-78
2021/07/31 06:12:42;;;;;;;11.65;7.35;;;;;;;24.70;49.36;99483.70;128246;1095;22343;-75
2021/07/31 06:15:12;;;;;;;11.90;7.60;;;;;;;24.91;48.43;99478.94;128595;1094;23292;-76
2021/07/31 06:17:41;;;;;;;12.18;7.08;;;;;;;25.04;47.78;99485.58;128248;1095;22361;-76
2021/07/31 06:20:13;;;;;;;11.50;5.83;;;;;;;25.32;47.98;99486.67;128534;1095;22347;-77
2021/07/31 06:22:42;;;;;;;14.93;7.10;;;;;;;25.66;46.46;99491.16;128579;1095;22343;-76
2021/07/31 06:25:12;;;;;;;10.75;5.88;;;;;;;26.00;45.77;99493.77;128544;1094;22698;-76
2021/07/31 06:27:41;;;;;;;6.70;5.93;;;;;;;26.10;44.50;99490.92;128565;1095;22412;-77
2021/07/31 06:30:11;;;;;;;6.63;5.88;;;;;;;25.99;44.21;99487.56;128601;1095;22359;-75
2021/07/31 06:32:41;;;;;;;7.40;4.78;;;;;;;25.84;44.60;99503.98;128575;1095;22344;-76
2021/07/31 06:35:10;;;;;;;6.85;5.23;;;;;;;25.74;44.52;99510.28;128555;1095;22363;-76
2021/07/31 06:37:40;;;;;;;7.68;5.88;;;;;;;25.61;44.57;99502.06;128239;1095;22349;-76
2021/07/31 06:40:11;;;;;;;8.83;6.65;;;;;;;25.40;44.60;99502.28;128573;1095;24236;-77
2021/07/31 06:42:41;;;;;;;7.70;6.20;;;;;;;25.28;44.87;99509.97;128664;1095;22341;-77
2021/07/31 06:45:11;;;;;;;7.60;6.25;;;;;;;25.29;45.14;99512.41;128284;1095;23122;-78
2021/07/31 06:47:41;;;;;;;8.30;5.68;;;;;;;25.35;45.21;99518.55;128886;1095;22344;-87
2021/07/31 06:50:11;;;;;;;8.68;6.13;;;;;;;25.33;44.79;99528.86;128358;1095;24509;-79
2021/07/31 06:52:44;;;;;;;104.03;18.13;;;;;;;25.27;45.05;99519.98;128325;1095;22354;-79
2021/07/31 06:55:14;;;;;;;14.10;8.35;;;;;;;25.31;45.19;99521.02;128596;1095;22353;-80
2021/07/31 06:57:44;;;;;;;10.20;6.30;;;;;;;25.37;44.61;99526.38;128307;1095;24522;-80
2021/07/31 07:00:14;;;;;;;6.38;5.38;;;;;;;25.30;45.10;99532.13;128608;1095;22343;-80
2021/07/31 07:02:44;;;;;;;7.73;5.55;;;;;;;25.25;45.01;99527.55;128664;1095;22344;-80
2021/07/31 07:05:13;;;;;;;12.60;7.33;;;;;;;25.17;45.04;99528.19;128736;1093;22359;-79
2021/07/31 07:07:43;;;;;;;11.05;5.95;;;;;;;25.09;45.06;99524.18;128658;1094;22416;-78
2021/07/31 07:10:13;;;;;;;7.75;5.60;;;;;;;25.09;45.77;99520.64;128287;1095;22348;-79
2021/07/31 07:12:43;;;;;;;8.25;5.38;;;;;;;25.11;45.70;99530.12;128309;1095;22350;-79
2021/07/31 07:15:13;;;;;;;9.08;5.78;;;;;;;25.06;45.33;99523.94;128285;1095;22350;-80
2021/07/31 07:17:42;;;;;;;10.48;6.25;;;;;;;25.07;45.79;99522.84;128314;1095;22337;-81
2021/07/31 07:20:12;;;;;;;9.50;6.75;;;;;;;25.19;45.53;99536.83;128660;1093;22733;-79
2021/07/31 07:22:42;;;;;;;8.28;6.08;;;;;;;25.22;45.58;99530.02;128591;1095;24488;-78
2021/07/31 07:25:12;;;;;;;8.23;5.68;;;;;;;25.24;45.63;99536.77;128276;1095;24491;-79
2021/07/31 07:27:41;;;;;;;11.60;6.70;;;;;;;25.30;45.41;99535.63;128606;1095;22344;-79
2021/07/31 07:30:12;;;;;;;9.38;6.33;;;;;;;25.34;45.46;99535.86;128336;1095;22359;-79
2021/07/31 07:32:42;;;;;;;6.30;5.20;;;;;;;25.31;44.77;99536.43;128268;1095;23301;-79
2021/07/31 07:35:11;;;;;;;8.48;5.13;;;;;;;25.27;44.73;99529.98;128655;1095;22343;-79
2021/07/31 07:37:41;;;;;;;6.28;5.48;;;;;;;25.24;44.94;99530.55;128563;1095;22350;-79
2021/07/31 07:40:12;;;;;;;9.35;5.38;;;;;;;25.19;44.90;99531.42;128609;1095;22359;-79
2021/07/31 07:42:41;;;;;;;6.78;5.25;;;;;;;25.11;44.77;99526.58;128339;1095;22359;-79
2021/07/31 07:45:11;;;;;;;5.93;5.15;;;;;;;25.04;44.66;99526.91;128636;1095;24492;-80
2021/07/31 07:47:41;;;;;;;8.23;5.00;;;;;;;25.03;44.90;99532.61;128292;1094;22344;-79
2021/07/31 07:50:11;;;;;;;6.03;5.20;;;;;;;25.02;45.15;99531.78;128369;1095;22334;-79
2021/07/31 07:52:41;;;;;;;7.43;5.48;;;;;;;25.00;45.02;99536.68;128333;1095;22343;-77
2021/07/31 07:55:11;;;;;;;7.38;5.20;;;;;;;24.96;45.32;99534.80;128608;1095;24480;-75
2021/07/31 07:57:41;;;;;;;10.35;6.28;;;;;;;24.95;45.14;99541.31;128364;1095;22356;-74
2021/07/31 08:00:11;;;;;;;13.48;5.93;;;;;;;24.92;45.29;99542.67;128572;1095;22328;-76
2021/07/31 08:02:44;;;;;;;17.85;5.90;;;;;;;24.91;45.62;99543.77;128620;1094;22695;-74
2021/07/31 08:05:15;;;;;;;9.80;5.55;;;;;;;24.86;45.10;99550.03;128255;1095;22360;-80
2021/07/31 08:07:45;;;;;;;6.23;4.68;;;;;;;24.85;45.08;99551.09;128286;1095;22339;-74
2021/07/31 08:10:15;;;;;;;6.43;4.93;;;;;;;24.90;44.84;99552.97;128258;1095;22347;-78
2021/07/31 08:12:44;;;;;;;7.95;4.55;;;;;;;24.94;44.98;99550.52;128288;1095;22353;-74
2021/07/31 08:15:15;;;;;;;6.23;4.70;;;;;;;24.99;44.82;99545.88;128615;1095;22342;-74
2021/07/31 08:17:44;;;;;;;7.93;4.35;;;;;;;25.06;44.64;99550.97;128290;1095;22354;-76
2021/07/31 08:20:14;;;;;;;7.38;4.53;;;;;;;25.11;44.63;99550.91;128554;1095;22347;-75
2021/07/31 08:22:43;;;;;;;7.08;5.48;;;;;;;25.18;44.29;99551.41;128282;1095;22417;-75
2021/07/31 08:25:13;;;;;;;7.23;4.50;;;;;;;25.22;44.30;99565.16;128283;1093;22351;-75
2021/07/31 08:27:43;;;;;;;7.65;5.05;;;;;;;25.24;44.23;99563.80;128295;1094;22350;-76
2021/07/31 08:30:14;;;;;;;9.00;4.87;;;;;;;25.28;44.20;99556.72;128742;1095;22354;-76
2021/07/31 08:32:44;;;;;;;9.15;5.83;;;;;;;25.34;44.22;99562.90;128632;1095;22356;-75
2021/07/31 08:35:14;;;;;;;8.90;5.55;;;;;;;25.43;43.95;99561.20;128570;1095;22523;-75
2021/07/31 08:37:44;;;;;;;10.45;9.20;;;;;;;25.52;44.03;99574.88;128622;1093;22431;-75
2021/07/31 08:40:14;;;;;;;7.80;5.48;;;;;;;25.60;43.99;99571.58;128560;1094;25005;-74
2021/07/31 08:42:43;;;;;;;8.68;5.40;;;;;;;25.73;44.25;99557.38;128549;1095;24219;-77
2021/07/31 08:45:15;;;;;;;7.43;5.45;;;;;;;25.86;43.87;99563.20;128564;1095;22362;-77
2021/07/31 08:47:47;;;;;;;5.95;5.18;;;;;;;25.93;43.55;99558.27;128614;1095;22343;-76
2021/07/31 08:50:17;;;;;;;9.27;5.30;;;;;;;25.99;43.61;99568.74;128828;1093;22354;-83
2021/07/31 08:52:48;;;;;;;12.40;5.33;;;;;;;26.01;43.63;99561.13;128579;1095;22344;-78
2021/07/31 08:55:18;;;;;;;8.28;5.45;;;;;;;26.03;43.62;99566.27;128696;1095;22731;-79
2021/07/31 08:57:48;;;;;;;9.10;6.08;;;;;;;26.05;43.85;99555.94;128655;1095;22350;-79
2021/07/31 09:00:18;;;;;;;9.53;5.13;;;;;;;26.01;43.61;99560.32;128563;1095;22389;-79
2021/07/31 09:02:48;;;;;;;8.38;4.98;;;;;;;26.02;43.85;99559.22;128325;1095;22362;-77
2021/07/31 09:05:34;;;;;;;6.73;4.95;;;;;;;26.06;43.93;99562.98;128593;1095;22382;-76
2021/07/31 09:08:09;;;;;;;11.35;5.13;;;;;;;26.13;43.66;99570.75;128583;1095;23119;-79
2021/07/31 09:10:44;;;;;;;13.30;5.50;;;;;;;26.23;43.58;99563.30;128707;1095;22375;-81
2021/07/31 09:13:17;;;;;;;8.18;4.58;;;;;;;26.35;43.22;99565.56;128598;1095;24962;-79
2021/07/31 09:15:53;;;;;;;8.20;5.20;;;;;;;26.57;42.69;99565.03;128419;1092;22362;-79
2021/07/31 09:18:35;;;;;;;9.33;4.18;;;;;;;26.71;42.40;99567.81;128875;1095;22372;-80
2021/07/31 09:21:15;;;;;;;11.45;5.68;;;;;;;26.84;42.38;99566.27;128305;1095;22695;-83
2021/07/31 09:23:50;;;;;;;9.78;5.65;;;;;;;26.98;41.92;99550.86;128336;1095;22356;-78
2021/07/31 09:26:24;;;;;;;11.45;5.73;;;;;;;27.08;41.64;99556.11;128380;1095;22618;-79
2021/07/31 09:29:13;;;;;;;7.35;4.93;;;;;;;27.14;41.32;99563.09;128336;1095;22353;-80
2021/07/31 09:32:08;;;;;;;6.95;4.78;;;;;;;27.23;40.96;99567.84;128377;1095;22359;-79
2021/07/31 09:35:04;;;;;;;8.08;4.43;;;;;;;27.28;40.56;99565.03;128332;1098;22796;-82
2021/07/31 09:37:51;;;;;;;5.25;3.65;;;;;;;27.33;40.07;99567.67;128013;1098;22830;-82
2021/07/31 09:40:33;;;;;;;12.28;5.65;;;;;;;27.33;40.11;99567.67;128040;1098;22376;-79
2021/07/31 09:43:18;;;;;;;7.45;6.15;;;;;;;27.33;40.15;99563.05;128234;1096;22372;-80
2021/07/31 09:45:49;;;;;;;5.85;3.85;;;;;;;27.31;40.25;99559.81;128018;1098;22384;-79
2021/07/31 09:48:19;;;;;;;7.33;4.53;;;;;;;27.31;40.03;99565.23;128305;1098;24615;-78
2021/07/31 09:50:50;;;;;;;6.45;5.23;;;;;;;27.31;39.74;99572.58;128395;1098;22354;-80
2021/07/31 09:53:24;;;;;;;7.23;4.23;;;;;;;27.43;39.81;99573.71;128277;1098;22374;-81
2021/07/31 09:56:06;;;;;;;7.90;4.17;;;;;;;27.49;39.00;99571.72;128391;1100;22493;-80
2021/07/31 09:58:40;;;;;;;23.35;4.68;;;;;;;27.50;38.75;99569.81;128241;1098;22366;-79
2021/07/31 10:01:10;;;;;;;44.90;41.08;;;;;;;27.43;39.22;99570.20;128273;1098;24534;-77
2021/07/31 10:03:41;;;;;;;8.60;4.40;;;;;;;27.40;39.13;99568.88;128047;1098;22364;-78
2021/07/31 10:06:11;;;;;;;6.23;3.68;;;;;;;27.44;39.14;99566.38;128020;1098;22391;-77
2021/07/31 10:08:43;;;;;;;8.27;3.63;;;;;;;27.65;39.03;99564.08;128102;1098;22399;-79
2021/07/31 10:11:16;;;;;;;7.20;4.70;;;;;;;27.80;38.99;99563.03;128166;1097;22381;-78
2021/07/31 10:13:46;;;;;;;8.28;4.80;;;;;;;28.03;38.87;99559.30;128667;1095;22359;-80
2021/07/31 10:16:16;;;;;;;8.38;3.68;;;;;;;28.33;38.29;99571.44;128606;1095;22648;-77
2021/07/31 10:19:01;;;;;;;14.75;4.88;;;;;;;28.68;37.53;99560.09;128596;1095;25008;-77
2021/07/31 10:21:36;;;;;;;12.05;3.85;;;;;;;28.87;37.09;99555.30;128578;1095;22359;-78
2021/07/31 10:24:07;;;;;;;7.83;3.45;;;;;;;28.88;36.68;99556.89;128594;1094;22343;-78
2021/07/31 10:26:38;;;;;;;6.48;3.78;;;;;;;28.84;36.88;99551.27;128614;1095;23121;-77
2021/07/31 10:29:33;;;;;;;7.13;4.25;;;;;;;28.83;37.02;99554.31;128617;1095;22360;-78
2021/07/31 10:32:40;;;;;;;6.68;4.25;;;;;;;28.88;37.58;99554.17;128639;1095;22442;-78
2021/07/31 10:35:36;;;;;;;8.93;4.10;;;;;;;28.94;37.07;99552.14;128191;1098;24529;-77
2021/07/31 10:38:11;;;;;;;5.63;3.53;;;;;;;28.87;36.35;99552.58;128191;1098;22359;-78
2021/07/31 10:40:43;;;;;;;7.70;3.90;;;;;;;28.71;36.69;99548.61;128008;1098;22369;-76
2021/07/31 10:43:15;;;;;;;7.03;4.05;;;;;;;28.72;37.16;99548.30;128418;1098;22356;-80
2021/07/31 10:45:44;;;;;;;15.13;4.15;;;;;;;28.91;36.79;99550.84;128136;1098;22525;-79
2021/07/31 10:48:27;;;;;;;5.00;3.93;;;;;;;29.04;36.21;99555.44;127979;1098;23319;-82
2021/07/31 10:50:57;;;;;;;6.53;3.45;;;;;;;29.04;35.53;99541.84;128411;1098;22372;-79
2021/07/31 10:53:47;;;;;;;6.70;3.63;;;;;;;28.96;35.65;99537.14;128063;1098;22379;-78
2021/07/31 10:56:17;;;;;;;5.30;3.50;;;;;;;28.79;36.31;99545.14;128033;1098;22378;-80
2021/07/31 10:59:16;;;;;;;5.60;3.60;;;;;;;28.85;36.66;99536.56;127981;1098;24538;-78
2021/07/31 11:01:47;;;;;;;10.38;3.35;;;;;;;28.95;36.38;99535.52;128248;1096;23409;-77
2021/07/31 11:04:59;;;;;;;5.65;3.75;;;;;;;29.05;35.96;99534.48;128064;1098;22365;-78
2021/07/31 11:07:29;;;;;;;5.48;3.50;;;;;;;29.13;35.83;99532.95;127990;1101;22384;-75
2021/07/31 11:10:43;;;;;;;10.13;3.95;;;;;;;29.15;35.39;99538.87;128003;1099;22354;-76
2021/07/31 11:13:39;;;;;;;6.20;2.95;;;;;;;29.12;34.93;99544.92;128172;1098;22373;-77
2021/07/31 11:16:20;;;;;;;8.55;3.78;;;;;;;29.07;34.75;99533.06;127961;1101;22816;-76
2021/07/31 11:18:57;;;;;;;14.13;3.93;;;;;;;29.06;35.10;99544.27;127885;1104;22428;-75
2021/07/31 11:21:42;;;;;;;9.48;3.80;;;;;;;29.07;35.26;99541.23;127395;1105;22417;-75
2021/07/31 11:24:12;;;;;;;6.28;3.65;;;;;;;29.05;35.34;99548.08;127441;1104;24505;-74
2021/07/31 11:26:54;;;;;;;5.88;3.48;;;;;;;28.98;35.13;99544.97;127697;1101;22376;-74
2021/07/31 11:29:28;;;;;;;4.83;3.58;;;;;;;28.97;35.42;99543.38;127965;1101;22436;-74
2021/07/31 11:32:11;;;;;;;5.50;3.43;;;;;;;28.95;35.69;99546.38;128182;1101;22330;-75
2021/07/31 11:34:44;;;;;;;4.38;3.63;;;;;;;28.96;35.64;99547.22;128067;1102;22384;-73
2021/07/31 11:37:16;;;;;;;5.18;3.38;;;;;;;28.91;35.46;99550.04;127733;1101;22378;-74
2021/07/31 11:39:46;;;;;;;6.90;4.43;;;;;;;28.79;35.64;99545.14;128086;1101;22441;-77
2021/07/31 11:42:21;;;;;;;8.38;3.93;;;;;;;28.74;35.97;99539.84;127966;1101;22402;-76